createdAt,value
2018-06-19T00:02:10.470Z,2.67
2018-06-19T00:04:39.146Z,3.07
2018-06-19T00:07:07.713Z,2.97
2018-06-19T00:09:36.429Z,3.00
2018-06-19T00:12:05.077Z,2.57
2018-06-19T00:14:33.720Z,2.20
2018-06-19T00:17:02.336Z,2.67
2018-06-19T00:19:31.701Z,2.30
2018-06-19T00:22:02.005Z,2.60
2018-06-19T00:24:30.586Z,2.07
2018-06-19T00:26:59.149Z,2.47
2018-06-19T00:29:27.786Z,2.70
2018-06-19T00:31:56.330Z,2.50
2018-06-19T00:34:24.911Z,2.10
2018-06-19T00:36:53.463Z,2.40
2018-06-19T00:39:22.101Z,2.10
2018-06-19T00:41:50.761Z,2.20
2018-06-19T00:44:19.371Z,2.10
2018-06-19T00:46:50.358Z,2.90
2018-06-19T00:49:18.990Z,2.40
2018-06-19T00:51:47.679Z,2.90
2018-06-19T00:54:16.369Z,2.13
2018-06-19T00:56:53.618Z,2.57
2018-06-19T00:59:22.152Z,2.67
2018-06-19T01:01:51.401Z,3.07
2018-06-19T01:04:20.032Z,2.90
2018-06-19T01:06:49.371Z,3.53
2018-06-19T01:09:18.459Z,3.07
2018-06-19T01:11:47.075Z,2.37
2018-06-19T01:14:15.689Z,2.80
2018-06-19T01:16:44.158Z,2.50
2018-06-19T01:19:12.843Z,4.23
2018-06-19T01:21:41.544Z,2.90
2018-06-19T01:24:10.274Z,2.50
2018-06-19T01:26:39.175Z,3.87
2018-06-19T01:29:07.926Z,2.87
2018-06-19T01:31:36.456Z,3.10
2018-06-19T01:34:05.081Z,3.07
2018-06-19T01:36:33.728Z,3.10
2018-06-19T01:39:02.467Z,2.97
2018-06-19T01:41:31.254Z,3.20
2018-06-19T01:43:59.844Z,2.80
2018-06-19T01:46:28.375Z,2.93
2018-06-19T01:48:57.176Z,3.27
2018-06-19T01:51:25.994Z,2.83
2018-06-19T01:53:54.580Z,3.50
2018-06-19T01:56:23.312Z,3.07
2018-06-19T01:58:51.981Z,3.07
2018-06-19T02:01:20.644Z,3.20
2018-06-19T02:03:49.266Z,3.63
2018-06-19T02:06:18.230Z,3.17
2018-06-19T02:08:46.806Z,3.47
2018-06-19T02:11:15.404Z,3.60
2018-06-19T02:13:43.971Z,3.53
2018-06-19T02:16:12.504Z,3.33
2018-06-19T02:18:41.031Z,2.90
2018-06-19T02:21:09.607Z,3.60
2018-06-19T02:23:38.210Z,3.50
2018-06-19T02:26:07.021Z,3.40
2018-06-19T02:28:35.669Z,3.80
2018-06-19T02:31:04.525Z,3.43
2018-06-19T02:33:33.146Z,2.77
2018-06-19T02:36:01.696Z,3.60
2018-06-19T02:38:30.476Z,2.93
2018-06-19T02:40:59.079Z,3.40
2018-06-19T02:43:27.686Z,3.10
2018-06-19T02:45:56.223Z,3.33
2018-06-19T02:48:24.986Z,2.97
2018-06-19T02:50:53.659Z,3.47
2018-06-19T02:53:22.231Z,3.30
2018-06-19T02:55:50.798Z,2.90
2018-06-19T02:58:19.360Z,3.07
2018-06-19T03:00:48.041Z,2.80
2018-06-19T03:03:16.673Z,3.13
2018-06-19T03:05:45.165Z,3.47
2018-06-19T03:08:13.814Z,2.70
2018-06-19T03:10:42.426Z,3.27
2018-06-19T03:13:11.024Z,3.33
2018-06-19T03:15:39.550Z,3.53
2018-06-19T03:18:08.463Z,3.43
2018-06-19T03:20:38.236Z,3.33
2018-06-19T03:23:07.036Z,3.17
2018-06-19T03:25:35.669Z,4.00
2018-06-19T03:28:04.336Z,3.30
2018-06-19T03:30:32.979Z,3.60
2018-06-19T03:33:01.621Z,3.23
2018-06-19T03:35:30.358Z,3.30
2018-06-19T03:37:59.085Z,3.20
2018-06-19T03:40:28.483Z,3.30
2018-06-19T03:42:57.158Z,3.50
2018-06-19T03:45:25.794Z,3.40
2018-06-19T03:47:54.463Z,3.23
2018-06-19T03:50:22.989Z,2.70
2018-06-19T03:52:51.666Z,3.43
2018-06-19T03:55:20.176Z,3.43
2018-06-19T03:57:48.875Z,3.57
2018-06-19T04:00:17.405Z,3.47
2018-06-19T04:02:45.990Z,4.00
2018-06-19T04:05:15.374Z,3.30
2018-06-19T04:07:43.912Z,4.10
2018-06-19T04:10:12.705Z,3.87
2018-06-19T04:12:41.302Z,3.53
2018-06-19T04:15:09.986Z,3.77
2018-06-19T04:17:38.639Z,3.50
2018-06-19T04:20:07.316Z,3.57
2018-06-19T04:22:35.879Z,3.63
2018-06-19T04:25:04.453Z,3.80
2018-06-19T04:27:33.117Z,3.87
2018-06-19T04:30:01.749Z,4.07
2018-06-19T04:32:30.433Z,3.80
2018-06-19T04:34:59.163Z,3.57
2018-06-19T04:37:28.753Z,3.77
2018-06-19T04:39:57.441Z,3.90
2018-06-19T04:42:26.892Z,4.03
2018-06-19T04:44:55.811Z,4.60
2018-06-19T04:47:24.599Z,4.27
2018-06-19T04:49:53.281Z,4.57
2018-06-19T04:52:22.164Z,4.03
2018-06-19T04:54:50.822Z,4.80
2018-06-19T04:57:19.583Z,4.40
2018-06-19T04:59:48.308Z,4.53
2018-06-19T05:02:17.245Z,5.03
2018-06-19T05:04:45.917Z,4.80
2018-06-19T05:07:14.604Z,4.67
2018-06-19T05:09:43.313Z,5.13
2018-06-19T05:12:11.976Z,5.40
2018-06-19T05:14:40.608Z,6.00
2018-06-19T05:17:09.218Z,6.27
2018-06-19T05:19:37.785Z,5.20
2018-06-19T05:22:06.410Z,6.43
2018-06-19T05:24:35.201Z,5.53
2018-06-19T05:27:03.838Z,6.53
2018-06-19T05:29:32.503Z,6.40
2018-06-19T05:32:01.284Z,5.97
2018-06-19T05:34:29.899Z,6.10
2018-06-19T05:36:58.736Z,6.43
2018-06-19T05:39:27.821Z,6.33
2018-06-19T05:41:56.528Z,7.23
2018-06-19T05:44:25.348Z,7.23
2018-06-19T05:46:54.200Z,8.60
2018-06-19T05:49:23.217Z,8.20
2018-06-19T05:51:51.976Z,8.03
2018-06-19T05:54:21.122Z,7.17
2018-06-19T05:56:49.908Z,8.57
2018-06-19T05:59:18.683Z,8.23
2018-06-19T06:01:47.287Z,8.40
2018-06-19T06:04:16.260Z,8.47
2018-06-19T06:06:44.888Z,9.00
2018-06-19T06:09:13.644Z,8.90
2018-06-19T06:11:42.612Z,9.23
2018-06-19T06:14:11.508Z,9.10
2018-06-19T06:16:40.448Z,8.43
2018-06-19T06:19:09.223Z,8.73
2018-06-19T06:21:38.093Z,8.37
2018-06-19T06:24:06.861Z,8.83
2018-06-19T06:26:35.573Z,8.20
2018-06-19T06:29:04.675Z,8.70
2018-06-19T06:31:33.359Z,9.10
2018-06-19T06:34:02.370Z,9.33
2018-06-19T06:36:31.188Z,8.67
2018-06-19T06:38:59.951Z,8.73
2018-06-19T06:41:28.732Z,10.20
2018-06-19T06:43:57.496Z,10.17
2018-06-19T06:46:26.227Z,9.93
2018-06-19T06:48:55.226Z,9.63
2018-06-19T06:51:24.001Z,9.77
2018-06-19T06:53:52.839Z,10.07
2018-06-19T06:56:21.622Z,10.47
2018-06-19T06:58:50.192Z,9.47
2018-06-19T07:01:18.835Z,10.43
2018-06-19T07:03:47.802Z,10.57
2018-06-19T07:06:16.649Z,12.67
2018-06-19T07:08:45.425Z,11.67
2018-06-19T07:11:14.088Z,11.43
2018-06-19T07:13:42.797Z,12.77
2018-06-19T07:16:11.485Z,12.43
2018-06-19T07:18:40.249Z,12.20
2018-06-19T07:21:09.048Z,12.47
2018-06-19T07:23:37.864Z,12.57
2018-06-19T07:26:06.483Z,12.50
2018-06-19T07:28:35.138Z,12.30
2018-06-19T07:31:03.824Z,13.90
2018-06-19T07:33:32.522Z,14.23
2018-06-19T07:36:01.351Z,14.63
2018-06-19T07:38:30.171Z,14.90
2018-06-19T07:40:58.808Z,14.83
2018-06-19T07:43:27.471Z,14.90
2018-06-19T07:45:56.622Z,14.37
2018-06-19T07:48:25.577Z,14.63
2018-06-19T07:50:54.464Z,13.40
2018-06-19T07:53:23.132Z,14.80
2018-06-19T07:55:51.853Z,14.63
2018-06-19T07:58:20.680Z,15.20
2018-06-19T08:00:49.450Z,14.20
2018-06-19T08:03:18.194Z,13.53
2018-06-19T08:05:52.195Z,14.30
2018-06-19T08:08:21.126Z,14.30
2018-06-19T08:10:49.839Z,14.47
2018-06-19T08:13:18.482Z,13.10
2018-06-19T08:15:47.186Z,13.53
2018-06-19T08:18:16.074Z,13.27
2018-06-19T08:20:45.053Z,14.27
2018-06-19T08:23:13.869Z,12.87
2018-06-19T08:25:42.579Z,13.30
2018-06-19T08:28:11.294Z,13.10
2018-06-19T08:30:40.034Z,14.80
2018-06-19T08:33:08.611Z,13.30
2018-06-19T08:35:37.267Z,12.60
2018-06-19T08:38:06.271Z,13.57
2018-06-19T08:40:34.978Z,12.73
2018-06-19T08:43:03.578Z,12.20
2018-06-19T08:45:32.324Z,13.07
2018-06-19T08:48:00.957Z,12.07
2018-06-19T08:50:29.516Z,12.07
2018-06-19T08:52:58.127Z,13.40
2018-06-19T08:55:26.745Z,12.10
2018-06-19T08:57:55.338Z,11.23
2018-06-19T09:00:24.112Z,11.53
2018-06-19T09:02:52.771Z,10.17
2018-06-19T09:05:21.371Z,10.40
2018-06-19T09:07:50.022Z,10.47
2018-06-19T09:10:18.691Z,9.80
2018-06-19T09:12:47.267Z,9.77
2018-06-19T09:15:15.873Z,8.90
2018-06-19T09:17:44.360Z,9.03
2018-06-19T09:20:13.029Z,8.13
2018-06-19T09:22:45.805Z,9.43
2018-06-19T09:25:14.832Z,9.23
2018-06-19T09:27:43.486Z,9.00
2018-06-19T09:30:12.173Z,8.70
2018-06-19T09:32:40.768Z,8.87
2018-06-19T09:35:09.381Z,8.70
2018-06-19T09:37:37.881Z,9.07
2018-06-19T09:40:06.389Z,9.97
2018-06-19T09:42:35.004Z,9.83
2018-06-19T09:45:03.787Z,9.63
2018-06-19T09:47:32.295Z,9.60
2018-06-19T09:50:00.814Z,8.93
2018-06-19T09:52:29.354Z,9.70
2018-06-19T09:54:58.194Z,10.40
2018-06-19T09:57:26.792Z,12.07
2018-06-19T09:59:55.408Z,11.10
2018-06-19T10:02:24.040Z,8.27
2018-06-19T10:04:52.657Z,8.83
2018-06-19T10:07:21.782Z,9.30
2018-06-19T10:09:52.105Z,9.63
2018-06-19T10:12:21.255Z,10.47
2018-06-19T10:14:50.458Z,11.33
2018-06-19T10:17:19.012Z,11.30
2018-06-19T10:19:47.760Z,11.90
2018-06-19T10:22:16.451Z,13.53
2018-06-19T10:24:45.030Z,13.87
2018-06-19T10:27:13.794Z,12.97
2018-06-19T10:29:42.588Z,13.97
2018-06-19T10:32:11.289Z,13.33
2018-06-19T10:34:40.090Z,13.70
2018-06-19T10:37:08.774Z,13.63
2018-06-19T10:39:37.580Z,14.27
2018-06-19T10:42:06.273Z,12.73
2018-06-19T10:44:35.023Z,12.80
2018-06-19T10:47:03.718Z,13.03
2018-06-19T10:49:32.591Z,14.67
2018-06-19T10:52:01.340Z,13.53
2018-06-19T10:54:29.934Z,14.47
2018-06-19T10:56:58.578Z,12.27
2018-06-19T10:59:27.198Z,12.20
2018-06-19T11:01:55.882Z,11.50
2018-06-19T11:04:24.586Z,13.03
2018-06-19T11:06:53.220Z,12.73
2018-06-19T11:09:22.226Z,13.07
2018-06-19T11:11:50.877Z,12.80
2018-06-19T11:14:19.533Z,12.60
2018-06-19T11:16:48.286Z,13.30
2018-06-19T11:19:17.160Z,12.40
2018-06-19T11:21:46.046Z,13.43
2018-06-19T11:24:14.761Z,12.50
2018-06-19T11:26:43.496Z,12.03
2018-06-19T11:29:12.240Z,12.23
2018-06-19T11:31:41.022Z,12.63
2018-06-19T11:34:09.725Z,12.47
2018-06-19T11:36:38.511Z,12.43
2018-06-19T11:39:09.851Z,12.83
2018-06-19T11:41:38.946Z,12.03
2018-06-19T11:44:07.771Z,13.57
2018-06-19T11:46:36.542Z,11.90
2018-06-19T11:49:05.626Z,12.43
2018-06-19T11:51:34.331Z,12.00
2018-06-19T11:54:03.035Z,11.43
2018-06-19T11:56:31.682Z,11.10
2018-06-19T11:59:00.355Z,11.47
2018-06-19T12:01:28.963Z,11.77
2018-06-19T12:03:57.748Z,11.40
2018-06-19T12:06:26.520Z,10.53
2018-06-19T12:08:55.238Z,10.23
2018-06-19T12:11:24.001Z,10.83
2018-06-19T12:13:52.655Z,11.70
2018-06-19T12:16:21.841Z,11.07
2018-06-19T12:18:50.690Z,10.07
2018-06-19T12:21:19.572Z,9.50
2018-06-19T12:23:48.283Z,9.10
2018-06-19T12:26:16.947Z,10.10
2018-06-19T12:28:45.754Z,10.50
2018-06-19T12:31:14.530Z,10.43
2018-06-19T12:33:43.293Z,10.10
2018-06-19T12:36:12.097Z,9.83
2018-06-19T12:38:41.223Z,8.70
2018-06-19T12:41:09.925Z,9.07
2018-06-19T12:43:38.763Z,7.90
2018-06-19T12:46:10.008Z,8.17
2018-06-19T12:48:40.294Z,8.70
2018-06-19T12:52:18.306Z,8.53
2018-06-19T12:55:33.140Z,8.30
2018-06-19T12:58:01.825Z,8.40
2018-06-19T13:00:31.499Z,8.10
2018-06-19T13:03:16.318Z,6.93
2018-06-19T13:05:56.417Z,7.73
2018-06-19T13:08:25.621Z,8.10
2018-06-19T13:10:55.479Z,7.20
2018-06-19T13:13:35.625Z,7.77
2018-06-19T13:16:05.447Z,7.70
2018-06-19T13:18:46.371Z,7.07
2018-06-19T13:21:16.927Z,6.90
2018-06-19T13:23:46.018Z,6.87
2018-06-19T13:26:18.653Z,7.67
2018-06-19T13:29:58.473Z,7.40
2018-06-19T13:32:27.524Z,7.57
2018-06-19T13:34:56.420Z,7.20
2018-06-19T13:37:29.330Z,7.63
2018-06-19T13:41:13.966Z,8.00
2018-06-19T13:43:53.984Z,8.53
2018-06-19T13:46:22.803Z,7.57
2018-06-19T13:48:51.698Z,7.40
2018-06-19T13:51:20.566Z,6.73
2018-06-19T13:53:49.422Z,6.47
2018-06-19T13:57:35.213Z,7.03
2018-06-19T14:00:06.069Z,5.97
2018-06-19T14:02:34.958Z,6.83
2018-06-19T14:05:04.234Z,7.07
2018-06-19T14:07:37.243Z,6.53
2018-06-19T14:10:19.778Z,6.63
2018-06-19T14:13:03.528Z,7.50
2018-06-19T14:15:37.229Z,7.47
2018-06-19T14:18:06.594Z,7.50
2018-06-19T14:20:36.295Z,6.80
2018-06-19T14:23:05.355Z,7.37
2018-06-19T14:25:34.476Z,6.23
2018-06-19T14:28:03.533Z,7.70
2018-06-19T14:30:32.240Z,7.30
2018-06-19T14:33:01.173Z,5.80
2018-06-19T14:35:29.947Z,6.50
2018-06-19T14:37:58.905Z,6.17
2018-06-19T14:40:27.674Z,6.77
2018-06-19T14:42:56.351Z,5.87
2018-06-19T14:45:25.236Z,6.60
2018-06-19T14:47:54.055Z,6.83
2018-06-19T14:50:22.743Z,6.23
2018-06-19T14:52:52.892Z,6.63
2018-06-19T14:55:21.703Z,5.37
2018-06-19T14:57:50.322Z,5.70
2018-06-19T15:00:19.060Z,5.83
2018-06-19T15:02:47.672Z,5.40
2018-06-19T15:05:16.865Z,5.97
2018-06-19T15:07:50.641Z,6.93
2018-06-19T15:10:19.993Z,6.83
2018-06-19T15:12:48.822Z,7.07
2018-06-19T15:15:17.697Z,6.13
2018-06-19T15:17:46.507Z,6.40
2018-06-19T15:20:15.930Z,6.83
2018-06-19T15:22:44.887Z,5.93
2018-06-19T15:25:14.628Z,6.00
2018-06-19T15:27:43.559Z,6.90
2018-06-19T15:30:12.623Z,6.57
2018-06-19T15:32:42.374Z,6.30
2018-06-19T15:35:11.226Z,5.63
2018-06-19T15:37:39.889Z,4.93
2018-06-19T15:40:08.758Z,4.90
2018-06-19T15:42:37.891Z,5.40
2018-06-19T15:45:06.725Z,5.63
2018-06-19T15:47:35.517Z,5.47
2018-06-19T15:50:05.178Z,5.40
2018-06-19T15:52:34.548Z,5.47
2018-06-19T15:55:04.468Z,5.73
2018-06-19T15:57:33.327Z,5.00
2018-06-19T16:00:02.124Z,5.23
2018-06-19T16:02:30.917Z,5.53
2018-06-19T16:04:59.822Z,5.13
2018-06-19T16:07:28.997Z,5.23
2018-06-19T16:09:57.755Z,5.17
2018-06-19T16:12:26.726Z,5.57
2018-06-19T16:14:55.920Z,5.37
2018-06-19T16:17:24.828Z,5.90
2018-06-19T16:19:55.168Z,5.53
2018-06-19T16:22:24.086Z,5.17
2018-06-19T16:24:53.942Z,5.50
2018-06-19T16:27:26.584Z,5.33
2018-06-19T16:30:13.078Z,5.07
2018-06-19T16:32:51.908Z,4.80
2018-06-19T16:35:21.250Z,5.37
2018-06-19T16:37:50.078Z,4.87
2018-06-19T16:40:18.793Z,5.63
2018-06-19T16:42:47.683Z,6.47
2018-06-19T16:45:18.141Z,5.43
2018-06-19T16:47:47.524Z,5.10
2018-06-19T16:50:16.086Z,6.30
2018-06-19T16:52:44.816Z,5.00
2018-06-19T16:55:13.578Z,5.60
2018-06-19T16:57:43.454Z,6.17
2018-06-19T17:00:12.621Z,6.00
2018-06-19T17:02:41.533Z,5.90
2018-06-19T17:05:10.490Z,5.77
2018-06-19T17:07:44.537Z,5.53
2018-06-19T17:10:14.318Z,5.87
2018-06-19T17:15:48.222Z,5.83
2018-06-19T17:18:17.747Z,6.00
2018-06-19T17:20:47.258Z,5.87
2018-06-19T17:23:17.454Z,6.00
2018-06-19T17:25:47.424Z,6.40
2018-06-19T17:28:16.872Z,6.60
2018-06-19T17:30:45.597Z,6.23
2018-06-19T17:33:14.992Z,5.40
2018-06-19T17:35:43.809Z,5.90
2018-06-19T17:38:12.868Z,6.07
2018-06-19T17:40:43.233Z,6.30
2018-06-19T17:43:12.064Z,8.97
2018-06-19T17:45:40.962Z,5.33
2018-06-19T17:48:09.654Z,6.40
2018-06-19T17:50:38.750Z,8.17
2018-06-19T17:53:07.362Z,18.77
2018-06-19T17:55:36.008Z,6.87
2018-06-19T17:58:05.062Z,7.10
2018-06-19T18:00:33.742Z,6.73
2018-06-19T18:03:02.388Z,6.50
2018-06-19T18:05:31.040Z,6.57
2018-06-19T18:07:59.731Z,6.77
2018-06-19T18:10:28.450Z,7.47
2018-06-19T18:12:57.212Z,7.00
2018-06-19T18:15:26.827Z,6.73
2018-06-19T18:18:02.707Z,7.67
2018-06-19T18:20:31.406Z,8.27
2018-06-19T18:23:00.796Z,7.50
2018-06-19T18:25:29.498Z,6.93
2018-06-19T18:27:58.123Z,6.43
2018-06-19T18:30:26.911Z,6.80
2018-06-19T18:32:55.935Z,7.63
2018-06-19T18:35:24.759Z,7.10
2018-06-19T18:37:54.618Z,6.37
2018-06-19T18:40:23.410Z,6.83
2018-06-19T18:42:52.236Z,7.37
2018-06-19T18:45:21.028Z,6.50
2018-06-19T18:47:50.793Z,6.60
2018-06-19T18:50:19.391Z,6.23
2018-06-19T18:52:48.204Z,6.77
2018-06-19T18:55:16.822Z,9.57
2018-06-19T18:57:52.664Z,6.80
2018-06-19T19:00:22.855Z,6.00
2018-06-19T19:02:52.719Z,5.83
2018-06-19T19:05:21.328Z,6.03
2018-06-19T19:07:53.955Z,5.80
2018-06-19T19:10:28.302Z,5.97
2018-06-19T19:12:57.014Z,5.47
2018-06-19T19:17:34.220Z,6.20
2018-06-19T19:20:05.630Z,5.80
2018-06-19T19:22:34.464Z,5.90
2018-06-19T19:25:04.252Z,5.33
2018-06-19T19:27:38.036Z,6.33
2018-06-19T19:30:07.303Z,5.87
2018-06-19T19:32:36.492Z,5.50
2018-06-19T19:35:06.701Z,6.03
2018-06-19T19:37:40.625Z,5.30
2018-06-19T19:40:09.926Z,6.13
2018-06-19T19:42:38.954Z,6.43
2018-06-19T19:45:07.757Z,5.93
2018-06-19T19:47:41.647Z,5.93
2018-06-19T19:50:10.723Z,5.87
2018-06-19T19:52:39.507Z,6.47
2018-06-19T19:55:08.295Z,5.93
2018-06-19T19:57:42.149Z,6.20
2018-06-19T20:00:14.039Z,6.10
2018-06-19T20:02:42.750Z,6.10
2018-06-19T20:05:11.568Z,5.43
2018-06-19T20:07:40.608Z,5.50
2018-06-19T20:10:09.420Z,6.23
2018-06-19T20:12:38.303Z,6.20
2018-06-19T20:15:07.205Z,5.57
2018-06-19T20:17:36.066Z,5.27
2018-06-19T20:20:07.419Z,5.70
2018-06-19T20:22:36.449Z,5.00
2018-06-19T20:25:05.387Z,5.03
2018-06-19T20:27:34.684Z,5.43
2018-06-19T20:30:03.314Z,5.20
2018-06-19T20:32:32.278Z,5.00
2018-06-19T20:35:01.484Z,4.77
2018-06-19T20:37:30.594Z,5.80
2018-06-19T20:39:59.310Z,5.20
2018-06-19T20:42:28.286Z,5.60
2018-06-19T20:44:57.468Z,5.63
2018-06-19T20:47:26.324Z,5.23
2018-06-19T20:49:55.298Z,5.57
2018-06-19T20:52:24.597Z,5.30
2018-06-19T20:54:53.690Z,4.93
2018-06-19T20:57:22.889Z,5.47
2018-06-19T20:59:51.772Z,5.33
2018-06-19T21:02:20.682Z,5.17
2018-06-19T21:04:49.822Z,5.17
2018-06-19T21:09:52.136Z,5.07
2018-06-19T21:12:21.518Z,5.17
2018-06-19T21:14:50.630Z,6.07
2018-06-19T21:17:19.778Z,5.50
2018-06-19T21:19:48.697Z,5.67
2018-06-19T21:22:17.844Z,5.17
2018-06-19T21:24:46.921Z,5.90
2018-06-19T21:27:16.060Z,5.40
2018-06-19T21:29:45.302Z,5.37
2018-06-19T21:32:14.113Z,5.23
2018-06-19T21:34:43.347Z,5.23
2018-06-19T21:37:12.039Z,5.93
2018-06-19T21:39:40.941Z,5.50
2018-06-19T21:42:09.776Z,6.03
2018-06-19T21:44:38.856Z,5.87
2018-06-19T21:47:07.835Z,6.07
2018-06-19T21:49:36.637Z,5.70
2018-06-19T21:52:05.399Z,5.27
2018-06-19T21:54:34.166Z,5.93
2018-06-19T21:57:02.978Z,6.57
2018-06-19T21:59:31.804Z,5.80
2018-06-19T22:02:00.876Z,5.63
2018-06-19T22:04:29.862Z,5.47
2018-06-19T22:06:58.605Z,5.60
2018-06-19T22:09:27.289Z,6.00
2018-06-19T22:11:55.937Z,5.37
2018-06-19T22:14:24.496Z,5.40
2018-06-19T22:16:53.033Z,5.33
2018-06-19T22:19:22.020Z,5.03
2018-06-19T22:21:50.619Z,5.13
2018-06-19T22:24:19.274Z,5.30
2018-06-19T22:26:47.842Z,5.63
2018-06-19T22:29:16.545Z,5.60
2018-06-19T22:31:45.424Z,6.30
2018-06-19T22:34:14.087Z,5.97
2018-06-19T22:36:42.875Z,5.70
2018-06-19T22:39:11.453Z,5.50
2018-06-19T22:41:40.231Z,5.03
2018-06-19T22:44:08.800Z,5.20
2018-06-19T22:46:37.522Z,5.93
2018-06-19T22:49:06.183Z,6.10
2018-06-19T22:51:35.002Z,5.53
2018-06-19T22:54:04.355Z,6.17
2018-06-19T22:56:33.422Z,6.00
2018-06-19T22:59:02.032Z,5.50
2018-06-19T23:01:30.901Z,5.93
2018-06-19T23:03:59.681Z,5.63
2018-06-19T23:06:29.301Z,5.93
2018-06-19T23:08:58.055Z,5.43
2018-06-19T23:11:26.659Z,5.57
2018-06-19T23:13:55.407Z,5.53
2018-06-19T23:16:24.069Z,5.30
2018-06-19T23:18:52.942Z,6.17
2018-06-19T23:21:22.624Z,5.47
2018-06-19T23:23:51.436Z,5.20
2018-06-19T23:26:20.124Z,5.87
2018-06-19T23:28:48.943Z,6.00
2018-06-19T23:31:18.309Z,5.77
2018-06-19T23:33:46.997Z,5.80
2018-06-19T23:36:15.898Z,5.53
2018-06-19T23:38:44.800Z,5.13
2018-06-19T23:41:13.679Z,5.17
2018-06-19T23:43:42.420Z,5.73
2018-06-19T23:46:11.123Z,5.33
2018-06-19T23:48:39.804Z,5.63
2018-06-19T23:51:08.366Z,5.77
2018-06-19T23:53:37.037Z,6.23
2018-06-19T23:56:05.642Z,5.67
2018-06-19T23:58:34.651Z,5.43
